createdAt,value
2023-03-02T00:01:46.570Z,101353.94
2023-03-02T00:04:20.796Z,101358.63
2023-03-02T00:06:49.083Z,101349.00
2023-03-02T00:09:16.126Z,101356.72
2023-03-02T00:11:43.131Z,101355.91
2023-03-02T00:14:09.864Z,101350.94
2023-03-02T00:16:36.628Z,101361.16
2023-03-02T00:19:03.501Z,101360.91
2023-03-02T00:21:31.725Z,101359.25
2023-03-02T00:23:58.561Z,101355.13
2023-03-02T00:26:25.302Z,101352.63
2023-03-02T00:28:52.160Z,101351.00
2023-03-02T00:31:18.968Z,101348.22
2023-03-02T00:33:45.742Z,101348.78
2023-03-02T00:36:20.544Z,101348.25
2023-03-02T00:38:48.231Z,101346.06
2023-03-02T00:41:16.483Z,101343.88
2023-03-02T00:43:43.375Z,101347.16
2023-03-02T00:46:24.489Z,101344.66
2023-03-02T00:48:52.226Z,101349.94
2023-03-02T00:51:19.118Z,101347.44
2023-03-02T00:53:46.492Z,101347.16
2023-03-02T00:56:13.341Z,101341.38
2023-03-02T00:58:45.593Z,101346.06
2023-03-02T01:01:13.631Z,101353.81
2023-03-02T01:03:45.438Z,101345.53
2023-03-02T01:06:18.772Z,101342.22
2023-03-02T01:08:46.382Z,101340.59
2023-03-02T01:11:15.532Z,101346.09
2023-03-02T01:13:42.569Z,101342.78
2023-03-02T01:16:09.594Z,101345.53
2023-03-02T01:18:38.744Z,101335.06
2023-03-02T01:21:10.651Z,101335.63
2023-03-02T01:23:37.432Z,101334.50
2023-03-02T01:26:04.733Z,101337.84
2023-03-02T01:28:32.443Z,101330.38
2023-03-02T01:31:01.340Z,101322.41
2023-03-02T01:33:28.368Z,101319.09
2023-03-02T01:35:55.021Z,101312.47
2023-03-02T01:38:21.783Z,101311.94
2023-03-02T01:40:48.395Z,101303.09
2023-03-02T01:43:16.521Z,101299.78
2023-03-02T01:45:46.334Z,101300.88
2023-03-02T01:48:20.330Z,101290.97
2023-03-02T01:50:47.835Z,101286.28
2023-03-02T01:53:16.451Z,101294.84
2023-03-02T01:55:45.973Z,101282.13
2023-03-02T01:58:14.115Z,101286.03
2023-03-02T02:00:42.112Z,101278.84
2023-03-02T02:03:14.382Z,101280.50
2023-03-02T02:05:46.477Z,101277.78
2023-03-02T02:08:13.863Z,101280.78
2023-03-02T02:10:40.819Z,101284.91
2023-03-02T02:13:11.587Z,101289.34
2023-03-02T02:15:40.327Z,101285.78
2023-03-02T02:18:07.736Z,101287.69
2023-03-02T02:20:44.904Z,101281.66
2023-03-02T02:23:48.041Z,101286.03
2023-03-02T02:26:31.498Z,101274.75
2023-03-02T02:29:00.600Z,101279.44
2023-03-02T02:31:37.071Z,101274.47
2023-03-02T02:34:15.890Z,101276.13
2023-03-02T02:36:48.109Z,101278.34
2023-03-02T02:39:31.171Z,101272.81
2023-03-02T02:42:02.886Z,101266.22
2023-03-02T02:44:30.798Z,101267.03
2023-03-02T02:46:57.652Z,101268.41
2023-03-02T02:49:32.229Z,101264.03
2023-03-02T02:51:59.872Z,101266.50
2023-03-02T02:54:28.428Z,101261.00
2023-03-02T02:56:57.030Z,101259.88
2023-03-02T02:59:28.983Z,101259.63
2023-03-02T03:02:00.405Z,101260.75
2023-03-02T03:04:30.784Z,101253.31
2023-03-02T03:07:01.284Z,101255.47
2023-03-02T03:09:29.545Z,101258.50
2023-03-02T03:12:08.499Z,101257.44
2023-03-02T03:14:39.191Z,101255.22
2023-03-02T03:17:13.717Z,101260.72
2023-03-02T03:19:52.533Z,101259.59
2023-03-02T03:22:19.966Z,101254.66
2023-03-02T03:24:49.079Z,101244.16
2023-03-02T03:27:17.512Z,101245.84
2023-03-02T03:29:48.324Z,101243.63
2023-03-02T03:32:18.145Z,101235.91
2023-03-02T03:34:45.742Z,101249.16
2023-03-02T03:37:20.259Z,101238.38
2023-03-02T03:39:47.391Z,101242.81
2023-03-02T03:42:15.767Z,101239.78
2023-03-02T03:44:42.901Z,101239.78
2023-03-02T03:47:09.690Z,101241.16
2023-03-02T03:49:37.187Z,101239.50
2023-03-02T03:52:05.775Z,101247.50
2023-03-02T03:54:32.572Z,101237.31
2023-03-02T03:56:59.527Z,101252.47
2023-03-02T03:59:27.233Z,101242.25
2023-03-02T04:02:03.023Z,101246.38
2023-03-02T04:04:41.767Z,101245.00
2023-03-02T04:07:15.204Z,101241.97
2023-03-02T04:09:43.632Z,101243.66
2023-03-02T04:12:12.555Z,101249.16
2023-03-02T04:14:42.975Z,101244.19
2023-03-02T04:17:10.957Z,101245.84
2023-03-02T04:19:41.856Z,101249.41
2023-03-02T04:22:09.661Z,101248.88
2023-03-02T04:24:36.538Z,101243.66
2023-03-02T04:27:04.619Z,101246.97
2023-03-02T04:29:32.696Z,101245.84
2023-03-02T04:32:01.423Z,101242.28
2023-03-02T04:34:29.836Z,101244.75
2023-03-02T04:36:56.668Z,101251.34
2023-03-02T04:39:23.831Z,101248.88
2023-03-02T04:41:52.213Z,101248.06
2023-03-02T04:44:19.769Z,101246.69
2023-03-02T04:46:47.437Z,101246.94
2023-03-02T04:49:16.206Z,101243.66
2023-03-02T04:51:45.590Z,101253.00
2023-03-02T04:54:20.808Z,101245.84
2023-03-02T04:56:48.722Z,101250.81
2023-03-02T04:59:16.981Z,101250.25
2023-03-02T05:01:44.626Z,101250.53
2023-03-02T05:04:12.543Z,101252.47
2023-03-02T05:06:39.260Z,101244.44
2023-03-02T05:09:06.591Z,101248.88
2023-03-02T05:11:34.524Z,101246.66
2023-03-02T05:14:03.695Z,101251.91
2023-03-02T05:16:33.269Z,101240.88
2023-03-02T05:19:01.953Z,101244.75
2023-03-02T05:21:28.720Z,101249.13
2023-03-02T05:23:55.307Z,101244.75
2023-03-02T05:26:22.421Z,101252.44
2023-03-02T05:28:49.187Z,101252.16
2023-03-02T05:31:43.124Z,101252.16
2023-03-02T05:34:12.691Z,101251.34
2023-03-02T05:36:39.338Z,101255.19
2023-03-02T05:39:07.228Z,101255.19
2023-03-02T05:41:34.308Z,101248.59
2023-03-02T05:44:01.484Z,101244.72
2023-03-02T05:46:28.460Z,101236.75
2023-03-02T05:48:55.173Z,101254.09
2023-03-02T05:51:22.039Z,101252.69
2023-03-02T05:53:48.986Z,101256.28
2023-03-02T05:56:15.752Z,101263.69
2023-03-02T05:58:42.463Z,101251.31
2023-03-02T06:01:13.529Z,101258.19
2023-03-02T06:03:42.059Z,101260.69
2023-03-02T06:06:08.745Z,101264.53
2023-03-02T06:08:40.884Z,101257.34
2023-03-02T06:11:08.663Z,101250.22
2023-03-02T06:13:37.587Z,101256.25
2023-03-02T06:16:05.334Z,101253.22
2023-03-02T06:18:33.382Z,101256.81
2023-03-02T06:21:00.164Z,101256.25
2023-03-02T06:23:26.881Z,101249.94
2023-03-02T06:25:53.678Z,101253.50
2023-03-02T06:28:20.588Z,101254.06
2023-03-02T06:30:52.229Z,101253.78
2023-03-02T06:33:21.321Z,101255.16
2023-03-02T06:35:48.458Z,101261.19
2023-03-02T06:38:15.199Z,101261.19
2023-03-02T06:40:41.961Z,101257.88
2023-03-02T06:43:08.703Z,101258.19
2023-03-02T06:45:35.554Z,101259.25
2023-03-02T06:48:02.605Z,101265.31
2023-03-02T06:50:29.661Z,101261.19
2023-03-02T06:52:56.761Z,101267.78
2023-03-02T06:55:23.853Z,101260.63
2023-03-02T06:57:50.936Z,101268.06
2023-03-02T07:00:25.836Z,101257.59
2023-03-02T07:02:53.298Z,101262.00
2023-03-02T07:05:20.493Z,101258.41
2023-03-02T07:07:47.229Z,101267.75
2023-03-02T07:10:14.211Z,101268.88
2023-03-02T07:12:42.074Z,101261.16
2023-03-02T07:15:12.200Z,101262.53
2023-03-02T07:17:40.536Z,101263.38
2023-03-02T07:20:08.563Z,101266.66
2023-03-02T07:22:35.311Z,101262.50
2023-03-02T07:25:02.051Z,101263.91
2023-03-02T07:27:28.881Z,101262.50
2023-03-02T07:29:55.673Z,101266.66
2023-03-02T07:32:22.422Z,101273.25
2023-03-02T07:34:49.219Z,101266.09
2023-03-02T07:37:16.005Z,101266.09
2023-03-02T07:39:42.619Z,101274.09
2023-03-02T07:42:12.317Z,101266.09
2023-03-02T07:44:41.312Z,101267.75
2023-03-02T07:47:08.089Z,101271.06
2023-03-02T07:49:35.612Z,101268.88
2023-03-02T07:52:03.464Z,101269.13
2023-03-02T07:54:31.022Z,101278.75
2023-03-02T07:56:58.564Z,101274.91
2023-03-02T07:59:25.884Z,101280.41
2023-03-02T08:01:52.830Z,101286.47
2023-03-02T08:04:19.804Z,101290.59
2023-03-02T08:06:46.603Z,101289.78
2023-03-02T08:09:15.171Z,101281.28
2023-03-02T08:11:43.705Z,101285.69
2023-03-02T08:14:10.633Z,101279.91
2023-03-02T08:16:38.744Z,101278.88
2023-03-02T08:19:05.434Z,101275.56
2023-03-02T08:21:33.776Z,101282.75
2023-03-02T08:24:00.999Z,101284.13
2023-03-02T08:26:27.821Z,101275.34
2023-03-02T08:28:54.580Z,101276.44
2023-03-02T08:31:21.503Z,101280.56
2023-03-02T08:33:48.366Z,101281.09
2023-03-02T08:36:18.644Z,101272.81
2023-03-02T08:38:46.641Z,101275.81
2023-03-02T08:41:17.185Z,101261.47
2023-03-02T08:43:44.011Z,101264.47
2023-03-02T08:46:12.256Z,101259.72
2023-03-02T08:48:39.699Z,101253.88
2023-03-02T08:51:09.940Z,101255.50
2023-03-02T08:53:39.540Z,101252.09
2023-03-02T08:56:15.549Z,101248.78
2023-03-02T08:58:42.120Z,101252.63
2023-03-02T09:01:17.482Z,101257.28
2023-03-02T09:03:44.305Z,101253.44
2023-03-02T09:06:10.905Z,101251.50
2023-03-02T09:08:37.674Z,101251.41
2023-03-02T09:11:04.901Z,101256.94
2023-03-02T09:13:31.841Z,101250.25
2023-03-02T09:15:58.976Z,101250.78
2023-03-02T09:18:25.920Z,101251.31
2023-03-02T09:20:53.815Z,101245.94
2023-03-02T09:23:20.752Z,101244.00
2023-03-02T09:25:48.826Z,101252.88
2023-03-02T09:28:16.912Z,101244.00
2023-03-02T09:30:52.390Z,101248.41
2023-03-02T09:33:20.006Z,101249.06
2023-03-02T09:35:47.634Z,101253.09
2023-03-02T09:38:18.420Z,101252.66
2023-03-02T09:40:58.668Z,101253.81
2023-03-02T09:43:37.755Z,101255.47
2023-03-02T09:46:16.542Z,101247.25
2023-03-02T09:49:31.123Z,101247.19
2023-03-02T09:52:00.736Z,101249.38
2023-03-02T09:54:28.815Z,101247.16
2023-03-02T09:56:57.967Z,101241.66
2023-03-02T09:59:28.949Z,101249.63
2023-03-02T10:02:01.463Z,101241.28
2023-03-02T10:04:42.827Z,101243.25
2023-03-02T10:07:41.253Z,101238.81
2023-03-02T10:10:29.266Z,101245.97
2023-03-02T10:13:07.691Z,101243.66
2023-03-02T10:15:42.684Z,101243.06
2023-03-02T10:18:25.057Z,101241.47
2023-03-02T10:21:11.945Z,101239.19
2023-03-02T10:23:50.681Z,101244.91
2023-03-02T10:26:42.737Z,101246.50
2023-03-02T10:29:32.572Z,101233.69
2023-03-02T10:32:06.501Z,101235.28
2023-03-02T10:34:37.072Z,101229.94
2023-03-02T10:37:12.584Z,101230.34
2023-03-02T10:39:39.271Z,101226.63
2023-03-02T10:42:11.524Z,101228.47
2023-03-02T10:44:46.055Z,101229.63
2023-03-02T10:47:27.750Z,101237.22
2023-03-02T10:49:57.687Z,101230.41
2023-03-02T10:52:27.787Z,101229.13
2023-03-02T10:55:14.181Z,101228.66
2023-03-02T10:57:43.379Z,101228.38
2023-03-02T11:00:18.015Z,101225.00
2023-03-02T11:03:03.619Z,101224.19
2023-03-02T11:05:35.302Z,101217.31
2023-03-02T11:08:08.874Z,101215.13
2023-03-02T11:11:05.659Z,101213.97
2023-03-02T11:13:37.714Z,101207.94
2023-03-02T11:16:25.821Z,101219.00
2023-03-02T11:19:03.763Z,101211.22
2023-03-02T11:21:48.698Z,101217.34
2023-03-02T11:24:28.503Z,101211.81
2023-03-02T11:26:59.537Z,101205.69
2023-03-02T11:29:46.039Z,101212.88
2023-03-02T11:32:27.594Z,101209.59
2023-03-02T11:35:05.499Z,101214.41
2023-03-02T11:37:39.833Z,101201.09
2023-03-02T11:40:21.559Z,101201.47
2023-03-02T11:42:48.677Z,101201.09
2023-03-02T11:45:16.395Z,101202.41
2023-03-02T11:48:03.262Z,101200.22
2023-03-02T11:50:34.664Z,101187.72
2023-03-02T11:53:06.931Z,101192.38
2023-03-02T11:55:42.934Z,101201.50
2023-03-02T11:58:19.631Z,101194.03
2023-03-02T12:00:48.768Z,101189.00
2023-03-02T12:03:15.531Z,101190.97
2023-03-02T12:05:46.716Z,101195.88
2023-03-02T12:08:19.349Z,101187.91
2023-03-02T12:11:03.601Z,101194.50
2023-03-02T12:13:33.773Z,101184.22
2023-03-02T12:16:01.013Z,101194.19
2023-03-02T12:18:31.554Z,101190.81
2023-03-02T12:21:16.322Z,101185.28
2023-03-02T12:23:49.089Z,101190.50
2023-03-02T12:26:22.199Z,101185.22
2023-03-02T12:29:09.383Z,101185.16
2023-03-02T12:31:52.785Z,101179.63
2023-03-02T12:34:36.027Z,101176.56
2023-03-02T12:37:44.302Z,101178.97
2023-03-02T12:40:39.336Z,101170.66
2023-03-02T12:43:27.130Z,101165.13
2023-03-02T12:46:21.700Z,101167.06
2023-03-02T12:49:16.263Z,101162.03
2023-03-02T12:52:00.306Z,101162.53
2023-03-02T12:54:30.320Z,101164.47
2023-03-02T12:57:06.831Z,101162.25
2023-03-02T12:59:36.042Z,101161.53
2023-03-02T13:02:23.767Z,101163.19
2023-03-02T13:05:00.237Z,101157.66
2023-03-02T13:07:34.914Z,101146.56
2023-03-02T13:10:07.155Z,101140.44
2023-03-02T13:12:36.172Z,101143.72
2023-03-02T13:15:02.894Z,101134.38
2023-03-02T13:17:32.315Z,101133.22
2023-03-02T13:20:00.108Z,101136.53
2023-03-02T13:22:28.260Z,101133.19
2023-03-02T13:25:03.416Z,101133.09
2023-03-02T13:27:30.946Z,101127.53
2023-03-02T13:30:13.068Z,101127.53
2023-03-02T13:32:43.190Z,101130.81
2023-03-02T13:35:24.987Z,101122.84
2023-03-02T13:38:00.257Z,101119.22
2023-03-02T13:40:26.993Z,101123.84
2023-03-02T13:42:54.193Z,101119.75
2023-03-02T13:45:28.202Z,101129.63
2023-03-02T13:47:58.038Z,101122.44
2023-03-02T13:50:30.433Z,101119.06
2023-03-02T13:53:01.621Z,101117.09
2023-03-02T13:55:28.843Z,101120.72
2023-03-02T13:57:56.187Z,101111.19
2023-03-02T14:00:29.585Z,101106.25
2023-03-02T14:02:56.232Z,101105.63
2023-03-02T14:05:33.123Z,101105.88
2023-03-02T14:08:00.936Z,101107.81
2023-03-02T14:10:27.838Z,101104.63
2023-03-02T14:13:06.092Z,101105.25
2023-03-02T14:15:34.135Z,101107.09
2023-03-02T14:18:01.004Z,101099.06
2023-03-02T14:20:27.782Z,101109.25
2023-03-02T14:22:54.576Z,101102.59
2023-03-02T14:25:21.924Z,101099.19
2023-03-02T14:27:48.643Z,101099.72
2023-03-02T14:30:20.654Z,101103.34
2023-03-02T14:32:47.913Z,101102.09
2023-03-02T14:35:16.722Z,101103.53
2023-03-02T14:37:48.380Z,101102.41
2023-03-02T14:40:25.852Z,101103.00
2023-03-02T14:42:53.182Z,101096.03
2023-03-02T14:45:21.477Z,101090.72
2023-03-02T14:47:49.133Z,101096.97
2023-03-02T14:50:19.160Z,101091.75
2023-03-02T14:52:49.664Z,101092.75
2023-03-02T14:55:27.691Z,101088.88
2023-03-02T14:58:00.911Z,101090.50
2023-03-02T15:00:27.626Z,101084.94
2023-03-02T15:02:54.889Z,101090.50
2023-03-02T15:05:23.115Z,101086.00
2023-03-02T15:07:50.622Z,101086.50
2023-03-02T15:10:20.384Z,101080.78
2023-03-02T15:12:47.615Z,101072.63
2023-03-02T15:15:14.533Z,101075.13
2023-03-02T15:17:41.714Z,101076.97
2023-03-02T15:20:14.646Z,101068.63
2023-03-02T15:22:41.599Z,101078.00
2023-03-02T15:25:08.727Z,101069.19
2023-03-02T15:27:35.481Z,101071.94
2023-03-02T15:30:02.242Z,101067.72
2023-03-02T15:32:28.909Z,101077.38
2023-03-02T15:34:55.836Z,101074.06
2023-03-02T15:37:22.504Z,101071.31
2023-03-02T15:39:54.213Z,101067.13
2023-03-02T15:42:21.100Z,101084.47
2023-03-02T15:44:47.930Z,101074.50
2023-03-02T15:47:14.979Z,101071.41
2023-03-02T15:49:41.695Z,101077.59
2023-03-02T15:52:09.592Z,101076.44
2023-03-02T15:54:36.347Z,101070.00
2023-03-02T15:57:03.313Z,101077.16
2023-03-02T15:59:31.867Z,101076.53
2023-03-02T16:02:02.517Z,101079.09
2023-03-02T16:04:31.148Z,101081.88
2023-03-02T16:06:58.503Z,101089.91
2023-03-02T16:09:28.808Z,101083.75
2023-03-02T16:11:56.236Z,101094.34
2023-03-02T16:14:23.353Z,101096.28
2023-03-02T16:16:51.140Z,101099.34
2023-03-02T16:19:19.344Z,101099.34
2023-03-02T16:21:47.608Z,101099.28
2023-03-02T16:24:16.258Z,101115.16
2023-03-02T16:26:43.338Z,101093.91
2023-03-02T16:29:11.752Z,101105.00
2023-03-02T16:31:39.532Z,101106.03
2023-03-02T16:34:08.875Z,101109.44
2023-03-02T16:36:40.306Z,101106.13
2023-03-02T16:39:08.585Z,101115.59
2023-03-02T16:41:36.850Z,101111.66
2023-03-02T16:44:04.179Z,101112.09
2023-03-02T16:46:36.143Z,101109.13
2023-03-02T16:49:03.513Z,101115.16
2023-03-02T16:51:30.259Z,101120.72
2023-03-02T16:53:57.260Z,101119.69
2023-03-02T16:56:24.240Z,101116.94
2023-03-02T16:58:50.909Z,101123.19
2023-03-02T17:01:19.939Z,101125.66
2023-03-02T17:03:48.152Z,101121.75
2023-03-02T17:06:18.767Z,101129.97
2023-03-02T17:08:45.540Z,101135.72
2023-03-02T17:11:12.458Z,101139.34
2023-03-02T17:13:39.456Z,101139.63
2023-03-02T17:16:06.533Z,101140.88
2023-03-02T17:18:33.854Z,101144.97
2023-03-02T17:21:01.395Z,101148.88
2023-03-02T17:23:28.787Z,101147.44
2023-03-02T17:25:56.049Z,101155.66
2023-03-02T17:28:23.098Z,101155.06
2023-03-02T17:30:49.992Z,101154.78
2023-03-02T17:33:17.219Z,101161.19
2023-03-02T17:35:44.128Z,101161.72
2023-03-02T17:38:11.492Z,101157.75
2023-03-02T17:40:38.307Z,101160.81
2023-03-02T17:43:05.236Z,101162.06
2023-03-02T17:45:32.024Z,101167.09
2023-03-02T17:47:59.718Z,101163.69
2023-03-02T17:50:30.980Z,101168.63
2023-03-02T17:52:58.605Z,101174.06
2023-03-02T17:55:25.833Z,101180.16
2023-03-02T17:57:52.628Z,101187.34
2023-03-02T18:00:22.113Z,101189.00
2023-03-02T18:02:48.873Z,101196.16
2023-03-02T18:05:15.771Z,101199.47
2023-03-02T18:07:42.514Z,101199.38
2023-03-02T18:10:09.840Z,101194.31
2023-03-02T18:12:36.654Z,101203.47
2023-03-02T18:15:03.901Z,101202.13
2023-03-02T18:17:30.456Z,101205.25
2023-03-02T18:19:57.083Z,101217.16
2023-03-02T18:22:23.923Z,101214.69
2023-03-02T18:24:51.941Z,101217.75
2023-03-02T18:27:19.129Z,101221.69
2023-03-02T18:29:45.828Z,101221.91
2023-03-02T18:32:13.023Z,101228.88
2023-03-02T18:34:39.822Z,101219.53
2023-03-02T18:37:07.029Z,101227.25
2023-03-02T18:39:33.758Z,101224.56
2023-03-02T18:42:00.593Z,101227.84
2023-03-02T18:44:28.380Z,101232.78
2023-03-02T18:46:55.780Z,101240.06
2023-03-02T18:49:23.367Z,101242.84
2023-03-02T18:51:50.149Z,101239.56
2023-03-02T18:54:16.878Z,101247.38
2023-03-02T18:56:43.721Z,101250.78
2023-03-02T18:59:11.264Z,101243.25
2023-03-02T19:01:38.128Z,101240.19
2023-03-02T19:04:05.918Z,101246.78
2023-03-02T19:06:33.613Z,101253.72
2023-03-02T19:09:00.633Z,101253.56
2023-03-02T19:11:27.433Z,101258.50
2023-03-02T19:13:54.237Z,101252.94
2023-03-02T19:16:20.969Z,101252.94
2023-03-02T19:18:48.630Z,101256.84
2023-03-02T19:21:15.881Z,101261.34
2023-03-02T19:23:44.115Z,101255.78
2023-03-02T19:26:12.265Z,101257.44
2023-03-02T19:28:39.996Z,101263.50
2023-03-02T19:31:08.964Z,101262.16
2023-03-02T19:33:36.047Z,101263.00
2023-03-02T19:36:03.539Z,101263.00
2023-03-02T19:38:30.657Z,101269.78
2023-03-02T19:40:59.747Z,101269.16
2023-03-02T19:43:27.160Z,101268.03
2023-03-02T19:45:54.239Z,101266.69
2023-03-02T19:48:21.202Z,101270.81
2023-03-02T19:50:48.055Z,101267.50
2023-03-02T19:53:17.013Z,101277.19
2023-03-02T19:55:44.760Z,101275.53
2023-03-02T19:58:17.229Z,101277.47
2023-03-02T20:00:44.672Z,101279.44
2023-03-02T20:03:12.004Z,101284.75
2023-03-02T20:05:38.737Z,101281.91
2023-03-02T20:08:06.699Z,101290.84
2023-03-02T20:10:43.499Z,101289.19
2023-03-02T20:13:10.532Z,101284.75
2023-03-02T20:15:40.792Z,101289.19
2023-03-02T20:18:18.780Z,101285.91
2023-03-02T20:20:47.243Z,101280.25
2023-03-02T20:23:14.722Z,101285.91
2023-03-02T20:25:41.995Z,101293.84
2023-03-02T20:28:11.842Z,101291.97
2023-03-02T20:30:43.435Z,101292.56
2023-03-02T20:33:11.048Z,101288.19
2023-03-02T20:35:41.050Z,101288.69
2023-03-02T20:38:17.786Z,101288.06
2023-03-02T20:40:45.793Z,101286.41
2023-03-02T20:43:12.762Z,101290.31
2023-03-02T20:45:39.942Z,101299.19
2023-03-02T20:48:07.300Z,101294.75
2023-03-02T20:50:36.332Z,101289.09
2023-03-02T20:53:04.049Z,101293.00
2023-03-02T20:55:31.064Z,101288.81
2023-03-02T20:57:57.846Z,101289.91
2023-03-02T21:00:27.199Z,101296.63
2023-03-02T21:02:54.489Z,101294.63
2023-03-02T21:05:21.250Z,101305.56
2023-03-02T21:07:49.420Z,101298.63
2023-03-02T21:10:25.576Z,101303.69
2023-03-02T21:12:52.286Z,101305.84
2023-03-02T21:15:20.173Z,101295.84
2023-03-02T21:17:47.261Z,101306.16
2023-03-02T21:20:16.002Z,101302.06
2023-03-02T21:22:45.517Z,101308.09
2023-03-02T21:25:12.731Z,101307.59
2023-03-02T21:27:40.289Z,101316.44
2023-03-02T21:30:12.581Z,101313.34
2023-03-02T21:32:39.238Z,101314.16
2023-03-02T21:35:06.262Z,101309.22
2023-03-02T21:37:32.953Z,101317.25
2023-03-02T21:40:00.056Z,101312.00
2023-03-02T21:42:27.209Z,101308.63
2023-03-02T21:44:53.859Z,101316.44
2023-03-02T21:47:20.776Z,101305.94
2023-03-02T21:49:50.903Z,101310.06
2023-03-02T21:52:17.533Z,101305.44
2023-03-02T21:54:44.163Z,101312.94
2023-03-02T21:57:11.034Z,101302.34
2023-03-02T21:59:37.810Z,101300.38
2023-03-02T22:02:05.021Z,101299.06
2023-03-02T22:04:31.767Z,101310.66
2023-03-02T22:06:58.459Z,101308.22
2023-03-02T22:09:25.053Z,101297.09
2023-03-02T22:11:52.018Z,101307.88
2023-03-02T22:14:19.316Z,101300.38
2023-03-02T22:16:48.040Z,101305.13
2023-03-02T22:19:30.186Z,101298.81
2023-03-02T22:22:01.320Z,101307.66
2023-03-02T22:24:30.915Z,101306.00
2023-03-02T22:27:08.984Z,101299.34
2023-03-02T22:29:47.145Z,101296.28
2023-03-02T22:32:33.756Z,101294.84
2023-03-02T22:35:18.699Z,101302.84
2023-03-02T22:37:45.364Z,101297.63
2023-03-02T22:40:30.383Z,101299.28
2023-03-02T22:43:24.863Z,101304.28
2023-03-02T22:45:52.940Z,101300.38
2023-03-02T22:48:22.286Z,101298.72
2023-03-02T22:50:50.008Z,101297.63
2023-03-02T22:53:30.715Z,101294.00
2023-03-02T22:56:02.317Z,101293.41
2023-03-02T22:58:39.693Z,101300.91
2023-03-02T23:01:21.118Z,101305.84
2023-03-02T23:03:50.606Z,101305.34
2023-03-02T23:06:22.214Z,101312.00
2023-03-02T23:08:49.380Z,101311.50
2023-03-02T23:11:19.445Z,101306.56
2023-03-02T23:13:46.878Z,101317.41
2023-03-02T23:16:28.171Z,101316.97
2023-03-02T23:18:57.355Z,101317.59
2023-03-02T23:21:28.565Z,101320.22
2023-03-02T23:23:56.083Z,101324.94
2023-03-02T23:26:22.752Z,101330.88
2023-03-02T23:28:50.865Z,101326.53
2023-03-02T23:31:21.365Z,101323.84
2023-03-02T23:33:48.531Z,101330.59
2023-03-02T23:36:15.856Z,101322.97
2023-03-02T23:38:42.793Z,101330.16
2023-03-02T23:41:10.079Z,101316.66
2023-03-02T23:43:37.049Z,101323.69
2023-03-02T23:46:04.013Z,101328.81
2023-03-02T23:48:30.827Z,101326.13
2023-03-02T23:50:57.562Z,101330.31
2023-03-02T23:53:24.415Z,101328.41
2023-03-02T23:55:53.415Z,101322.94
2023-03-02T23:58:20.721Z,101324.66
